Time;durP1;ratioP1;P1;durP2;ratioP2;P2;SDS_P1;SDS_P2;PMS_P1;PMS_P2;Temp;Humidity;BMP_temperature;BMP_pressure;BME280_temperature;BME280_humidity;BME280_pressure;Samples;Min_cycle;Max_cycle;Signal;HPM_P1;HPM_P2
2022/08/20 00:02:21;;;;;;;1.38;0.88;;;25.50;63.00;;;;;;5015503;27;91804;-83
2022/08/20 00:04:47;;;;;;;1.70;1.42;;;25.50;63.10;;;;;;5017086;28;92296;-83
2022/08/20 00:07:14;;;;;;;0.73;0.73;;;25.50;63.00;;;;;;5016425;28;93350;-83
2022/08/20 00:09:40;;;;;;;1.90;1.40;;;25.50;63.00;;;;;;5014493;28;93116;-83
2022/08/20 00:12:07;;;;;;;0.85;0.80;;;25.50;62.90;;;;;;5007736;28;92377;-83
2022/08/20 00:14:34;;;;;;;1.50;1.02;;;25.50;63.00;;;;;;5015998;28;91346;-83
2022/08/20 00:17:01;;;;;;;1.08;0.98;;;25.50;63.00;;;;;;5016561;28;93560;-83
2022/08/20 00:19:27;;;;;;;1.30;1.00;;;25.50;62.90;;;;;;5015647;28;93221;-83
2022/08/20 00:21:52;;;;;;;0.90;0.90;;;25.50;63.10;;;;;;5015313;28;93197;-83
2022/08/20 00:24:18;;;;;;;1.42;1.02;;;25.50;63.00;;;;;;5016040;27;91958;-83
2022/08/20 00:26:44;;;;;;;1.67;1.00;;;25.40;62.80;;;;;;5015899;27;94046;-83
2022/08/20 00:29:09;;;;;;;0.95;0.90;;;25.40;63.00;;;;;;5016147;28;93410;-83
2022/08/20 00:31:35;;;;;;;1.35;1.00;;;25.40;62.70;;;;;;5015185;28;92553;-82
2022/08/20 00:34:00;;;;;;;1.17;1.05;;;25.50;63.00;;;;;;5015692;28;92034;-83
2022/08/20 00:36:26;;;;;;;1.42;1.00;;;25.40;62.80;;;;;;5014108;28;96672;-83
2022/08/20 00:38:51;;;;;;;0.95;0.88;;;25.40;62.90;;;;;;5015718;28;93356;-82
2022/08/20 00:41:23;;;;;;;1.73;1.15;;;25.40;62.80;;;;;;5015944;28;91938;-82
2022/08/20 00:44:05;;;;;;;1.15;1.05;;;25.40;62.80;;;;;;5015508;28;91875;-83
2022/08/20 00:46:32;;;;;;;1.20;1.10;;;25.40;62.70;;;;;;5014005;28;94762;-82
2022/08/20 00:48:58;;;;;;;1.30;0.90;;;25.50;62.90;;;;;;5015695;28;93252;-82
2022/08/20 00:51:53;;;;;;;1.23;1.10;;;25.40;62.90;;;;;;5014685;27;91876;-82
2022/08/20 00:54:33;;;;;;;1.20;0.98;;;25.40;62.80;;;;;;5003460;28;92620;-83
2022/08/20 00:57:15;;;;;;;1.10;1.00;;;25.40;62.80;;;;;;4992268;28;94496;-82
2022/08/20 00:59:42;;;;;;;1.10;0.80;;;25.40;62.80;;;;;;4993137;28;92112;-83
2022/08/20 01:02:13;;;;;;;1.30;0.90;;;25.40;62.80;;;;;;4993314;28;92141;-82
2022/08/20 01:04:42;;;;;;;1.35;1.00;;;25.40;62.70;;;;;;5013147;28;91921;-83
2022/08/20 01:07:08;;;;;;;0.93;0.80;;;25.40;62.90;;;;;;4995248;28;97161;-83
2022/08/20 01:09:36;;;;;;;1.10;1.00;;;25.40;62.80;;;;;;5012598;28;93662;-83
2022/08/20 01:12:02;;;;;;;1.05;1.00;;;25.40;62.90;;;;;;5011872;28;93044;-83
2022/08/20 01:17:05;;;;;;;1.10;1.00;;;25.40;62.40;;;;;;5017023;28;92465;-83
2022/08/20 01:19:40;;;;;;;1.42;1.00;;;25.40;62.30;;;;;;5014876;28;94744;-83
2022/08/20 01:23:25;;;;;;;1.38;1.02;;;25.40;62.50;;;;;;5016290;28;92241;-83
2022/08/20 01:25:00;;;;;;;1.35;0.90;;;25.40;62.40;;;;;;5015667;28;92142;-83
2022/08/20 01:27:26;;;;;;;1.08;0.98;;;25.40;62.60;;;;;;5015731;28;92982;-83
2022/08/20 01:29:52;;;;;;;1.67;1.00;;;25.40;62.30;;;;;;5016553;28;93796;-83
2022/08/20 01:32:18;;;;;;;1.30;1.10;;;25.40;62.40;;;;;;4998322;28;92077;-83
2022/08/20 01:34:43;;;;;;;0.75;0.75;;;25.30;62.40;;;;;;4997220;28;91977;-83
2022/08/20 01:37:09;;;;;;;0.80;0.80;;;25.40;62.40;;;;;;4997087;28;94381;-83
2022/08/20 01:39:36;;;;;;;1.05;0.93;;;25.30;62.30;;;;;;4997935;28;94190;-82
2022/08/20 01:42:19;;;;;;;0.85;0.85;;;25.30;62.70;;;;;;4998451;28;91987;-83
2022/08/20 01:44:46;;;;;;;1.20;1.00;;;25.30;62.80;;;;;;4997170;28;92375;-83
2022/08/20 01:47:21;;;;;;;1.00;0.90;;;25.30;62.50;;;;;;4997878;28;95398;-82
2022/08/20 01:49:50;;;;;;;1.13;0.90;;;25.30;63.10;;;;;;4996910;28;99822;-82
2022/08/20 01:52:32;;;;;;;1.45;1.05;;;25.30;62.30;;;;;;4998435;28;92575;-84
2022/08/20 01:54:57;;;;;;;1.17;1.02;;;25.30;62.20;;;;;;4998991;28;91417;-83
2022/08/20 01:57:25;;;;;;;0.82;0.82;;;25.30;62.10;;;;;;4996607;28;92709;-83
2022/08/20 01:59:51;;;;;;;0.90;0.80;;;25.30;62.40;;;;;;4997146;28;93384;-83
2022/08/20 02:02:18;;;;;;;1.20;1.10;;;25.30;62.40;;;;;;4998147;28;93293;-82
2022/08/20 02:04:44;;;;;;;1.10;1.00;;;25.30;62.30;;;;;;4998029;28;91978;-83
2022/08/20 02:07:17;;;;;;;1.00;1.00;;;25.30;62.40;;;;;;4997761;28;92601;-83
2022/08/20 02:09:45;;;;;;;0.90;0.90;;;25.30;62.10;;;;;;4998482;28;92700;-83
2022/08/20 02:12:13;;;;;;;1.35;1.25;;;25.30;62.20;;;;;;5018329;28;92096;-82
2022/08/20 02:14:41;;;;;;;1.48;0.90;;;25.30;62.30;;;;;;5017776;28;91891;-83
2022/08/20 02:17:07;;;;;;;1.38;0.90;;;25.30;62.10;;;;;;5018950;28;93511;-82
2022/08/20 02:19:39;;;;;;;1.23;1.13;;;25.30;62.10;;;;;;5017352;28;93240;-83
2022/08/20 02:22:21;;;;;;;1.08;0.98;;;25.30;62.30;;;;;;5016763;28;92310;-82
2022/08/20 02:24:46;;;;;;;1.25;0.88;;;25.30;62.20;;;;;;5014635;27;92479;-83
2022/08/20 02:27:13;;;;;;;0.77;0.77;;;25.30;62.30;;;;;;5014632;27;94414;-83
2022/08/20 02:29:39;;;;;;;0.95;0.80;;;25.20;62.30;;;;;;5011796;28;94742;-83
2022/08/20 02:32:06;;;;;;;0.90;0.90;;;25.20;62.40;;;;;;5014850;28;92461;-83
2022/08/20 02:34:34;;;;;;;1.83;0.90;;;25.20;62.20;;;;;;5014059;28;92973;-83
2022/08/20 02:37:02;;;;;;;1.00;0.90;;;25.20;62.20;;;;;;5013942;28;93685;-83
2022/08/20 02:39:28;;;;;;;0.70;0.70;;;25.20;62.30;;;;;;5013973;28;92990;-83
2022/08/20 02:41:53;;;;;;;1.42;1.20;;;25.20;62.30;;;;;;5014264;28;92382;-82
2022/08/20 02:44:19;;;;;;;1.05;0.90;;;25.20;62.10;;;;;;5014863;28;91512;-84
2022/08/20 02:46:47;;;;;;;1.10;1.00;;;25.20;62.20;;;;;;4996998;28;96863;-83
2022/08/20 02:49:13;;;;;;;1.20;1.10;;;25.20;62.20;;;;;;4996492;28;95964;-82
2022/08/20 02:51:39;;;;;;;1.20;1.10;;;25.20;62.30;;;;;;5006790;28;93447;-83
2022/08/20 02:54:04;;;;;;;1.73;1.25;;;25.20;62.20;;;;;;5013991;28;92524;-83
2022/08/20 02:56:30;;;;;;;1.08;0.98;;;25.20;62.10;;;;;;5014579;28;93152;-83
2022/08/20 02:58:55;;;;;;;0.85;0.85;;;25.20;62.30;;;;;;5015475;28;93108;-83
2022/08/20 03:01:21;;;;;;;1.90;1.00;;;25.20;62.20;;;;;;5016407;28;92115;-83
2022/08/20 03:03:47;;;;;;;1.00;1.00;;;25.20;62.00;;;;;;5012654;27;92356;-83
2022/08/20 03:06:13;;;;;;;1.00;0.90;;;25.20;62.20;;;;;;5018457;28;92459;-83
2022/08/20 03:08:40;;;;;;;0.73;0.73;;;25.20;62.30;;;;;;5017544;27;92551;-82
2022/08/20 03:11:06;;;;;;;0.93;0.80;;;25.20;62.30;;;;;;5018502;28;92487;-83
2022/08/20 03:13:32;;;;;;;0.80;0.80;;;25.20;62.30;;;;;;5017666;27;92260;-82
2022/08/20 03:15:59;;;;;;;0.90;0.90;;;25.20;62.10;;;;;;5014965;28;97377;-82
2022/08/20 03:18:29;;;;;;;1.40;0.95;;;25.20;62.10;;;;;;5016535;27;93802;-83
2022/08/20 03:20:54;;;;;;;0.70;0.60;;;25.20;62.20;;;;;;5015550;28;92500;-83
2022/08/20 03:23:21;;;;;;;1.02;0.85;;;25.20;62.10;;;;;;5014662;28;92844;-82
2022/08/20 03:25:47;;;;;;;0.80;0.80;;;25.20;61.90;;;;;;5016194;28;96422;-82
2022/08/20 03:28:14;;;;;;;1.10;1.02;;;25.20;62.10;;;;;;5016128;27;92634;-83
2022/08/20 03:30:41;;;;;;;0.95;0.90;;;25.20;62.30;;;;;;5016230;28;92750;-83
2022/08/20 03:33:07;;;;;;;0.73;0.73;;;25.10;62.00;;;;;;5016432;27;91581;-83
2022/08/20 03:35:34;;;;;;;2.78;1.25;;;25.10;62.10;;;;;;5016629;28;93707;-83
2022/08/20 03:38:00;;;;;;;0.80;0.80;;;25.10;62.10;;;;;;5015899;28;93657;-82
2022/08/20 03:40:31;;;;;;;1.10;1.00;;;25.10;62.10;;;;;;5016417;27;93550;-83
2022/08/20 03:42:57;;;;;;;0.93;0.80;;;25.10;62.10;;;;;;5015820;28;92036;-82
2022/08/20 03:45:25;;;;;;;0.80;0.80;;;25.10;62.10;;;;;;5016349;28;92671;-83
2022/08/20 03:47:52;;;;;;;0.98;0.90;;;25.10;62.00;;;;;;5015789;27;93175;-82
2022/08/20 03:50:19;;;;;;;0.90;0.90;;;25.10;62.00;;;;;;5016886;28;92517;-83
2022/08/20 03:52:45;;;;;;;0.80;0.80;;;25.10;62.10;;;;;;5016137;28;92564;-82
2022/08/20 03:55:11;;;;;;;1.10;1.00;;;25.10;61.90;;;;;;5015852;27;93359;-83
2022/08/20 03:57:44;;;;;;;1.00;0.90;;;25.10;62.10;;;;;;5016155;28;93180;-83
2022/08/20 04:00:12;;;;;;;0.98;0.82;;;25.10;62.10;;;;;;5016031;28;92501;-83
2022/08/20 04:02:38;;;;;;;1.55;0.95;;;25.10;62.10;;;;;;5015797;28;92284;-83
2022/08/20 04:05:04;;;;;;;1.00;0.90;;;25.10;61.90;;;;;;5013995;28;98618;-83
2022/08/20 04:07:30;;;;;;;0.82;0.80;;;25.10;61.90;;;;;;5016264;28;94336;-83
2022/08/20 04:09:56;;;;;;;0.90;0.90;;;25.10;62.10;;;;;;5016578;28;92042;-83
2022/08/20 04:12:24;;;;;;;0.90;0.90;;;25.10;61.90;;;;;;5016488;28;92374;-83
2022/08/20 04:14:51;;;;;;;1.23;0.90;;;25.10;62.00;;;;;;5015659;27;92449;-83
2022/08/20 04:17:18;;;;;;;0.90;0.90;;;25.00;61.80;;;;;;5015813;27;93311;-83
2022/08/20 04:19:44;;;;;;;0.82;0.80;;;25.00;61.90;;;;;;5016873;28;92403;-83
2022/08/20 04:22:12;;;;;;;1.00;0.90;;;25.10;61.90;;;;;;5015923;28;91099;-83
2022/08/20 04:24:39;;;;;;;0.82;0.82;;;25.00;61.90;;;;;;5013769;28;96673;-83
2022/08/20 04:27:07;;;;;;;1.00;0.90;;;25.10;61.80;;;;;;5015671;27;93094;-82
2022/08/20 04:29:33;;;;;;;1.20;0.80;;;25.00;61.90;;;;;;5016114;28;92779;-82
2022/08/20 04:32:01;;;;;;;1.05;0.85;;;25.00;62.00;;;;;;5015202;28;92287;-83
2022/08/20 04:34:28;;;;;;;1.25;1.00;;;25.00;62.00;;;;;;5015088;28;93283;-83
2022/08/20 04:36:54;;;;;;;0.85;0.70;;;25.00;61.90;;;;;;5015705;27;93325;-82
2022/08/20 04:39:19;;;;;;;1.63;1.13;;;25.00;61.90;;;;;;5016092;27;92638;-83
2022/08/20 04:41:45;;;;;;;1.00;0.90;;;25.00;62.00;;;;;;5014885;27;92440;-83
2022/08/20 04:44:11;;;;;;;1.70;0.80;;;25.00;62.00;;;;;;5015410;28;93660;-82
2022/08/20 04:46:38;;;;;;;0.85;0.82;;;25.00;61.80;;;;;;5014975;28;95465;-83
2022/08/20 04:49:08;;;;;;;0.95;0.90;;;25.00;62.00;;;;;;5013601;28;92536;-83
2022/08/20 04:51:34;;;;;;;0.70;0.70;;;25.00;61.90;;;;;;5014593;28;92649;-83
2022/08/20 04:54:01;;;;;;;0.80;0.80;;;25.00;61.90;;;;;;5013515;28;94652;-83
2022/08/20 04:56:38;;;;;;;0.98;0.90;;;25.00;62.00;;;;;;5015126;28;93483;-83
2022/08/20 04:59:06;;;;;;;0.70;0.70;;;25.00;62.00;;;;;;5015833;28;91861;-82
2022/08/20 05:01:32;;;;;;;1.10;0.88;;;25.00;61.90;;;;;;5015529;27;92058;-83
2022/08/20 05:03:57;;;;;;;2.13;0.80;;;25.00;61.80;;;;;;5013468;28;95717;-83
2022/08/20 05:06:28;;;;;;;0.70;0.70;;;25.00;61.90;;;;;;5015153;28;93591;-83
2022/08/20 05:08:56;;;;;;;0.88;0.80;;;25.00;61.80;;;;;;5014868;28;93269;-83
2022/08/20 05:11:22;;;;;;;1.48;0.80;;;25.00;62.00;;;;;;5016559;28;91442;-83
2022/08/20 05:13:52;;;;;;;1.00;0.90;;;25.00;61.90;;;;;;5014946;28;93275;-83
2022/08/20 05:16:18;;;;;;;0.90;0.77;;;25.00;61.80;;;;;;5015074;28;93465;-82
2022/08/20 05:18:45;;;;;;;1.58;0.98;;;25.00;61.90;;;;;;5014672;28;93610;-83
2022/08/20 05:21:10;;;;;;;1.33;0.93;;;24.90;61.80;;;;;;5014573;28;91963;-82
2022/08/20 05:23:41;;;;;;;0.73;0.73;;;25.00;61.90;;;;;;5014206;28;92326;-83
2022/08/20 05:26:10;;;;;;;1.02;0.80;;;24.90;61.70;;;;;;5015347;28;92740;-83
2022/08/20 05:28:38;;;;;;;0.80;0.80;;;25.00;61.70;;;;;;5015591;27;91986;-83
2022/08/20 05:31:08;;;;;;;0.90;0.90;;;25.00;61.90;;;;;;5014340;27;92055;-83
2022/08/20 05:33:35;;;;;;;1.00;0.90;;;25.00;61.80;;;;;;5013527;27;93629;-83
2022/08/20 05:36:00;;;;;;;0.80;0.77;;;24.90;61.80;;;;;;5014242;27;93373;-83
2022/08/20 05:38:28;;;;;;;0.80;0.80;;;25.00;62.90;;;;;;5014355;28;92587;-83
2022/08/20 05:40:54;;;;;;;1.08;1.02;;;24.90;61.90;;;;;;5013809;28;92463;-83
2022/08/20 05:43:20;;;;;;;1.00;0.90;;;24.90;61.80;;;;;;5013682;28;94591;-84
2022/08/20 05:45:51;;;;;;;1.20;0.95;;;25.00;61.90;;;;;;5014516;28;94139;-82
2022/08/20 05:48:21;;;;;;;1.00;0.90;;;24.90;61.90;;;;;;5014702;27;91998;-82
2022/08/20 05:50:49;;;;;;;0.82;0.70;;;24.90;61.80;;;;;;5014060;28;92582;-82
2022/08/20 05:53:15;;;;;;;0.90;0.90;;;24.90;61.80;;;;;;5013579;27;92038;-82
2022/08/20 05:55:42;;;;;;;0.80;0.80;;;24.90;61.80;;;;;;5014711;28;92510;-83
2022/08/20 05:58:15;;;;;;;0.80;0.80;;;24.90;61.80;;;;;;5013980;28;91955;-82
2022/08/20 06:00:40;;;;;;;1.13;1.02;;;24.90;61.90;;;;;;5011676;28;91737;-82
2022/08/20 06:05:50;;;;;;;2.78;0.82;;;25.10;61.50;;;;;;5017674;27;92353;-82
2022/08/20 06:08:16;;;;;;;2.72;0.98;;;25.10;61.50;;;;;;5015133;27;93318;-84
2022/08/20 06:10:43;;;;;;;2.95;1.30;;;25.10;61.60;;;;;;5018946;28;92085;-85
2022/08/20 06:13:09;;;;;;;2.25;0.90;;;25.00;61.50;;;;;;5014725;28;96780;-84
2022/08/20 06:15:35;;;;;;;2.25;1.20;;;25.10;61.60;;;;;;5032630;27;95627;-83
2022/08/20 06:18:06;;;;;;;3.22;1.60;;;25.10;61.90;;;;;;5017764;27;92420;-84
2022/08/20 06:20:33;;;;;;;6.05;2.65;;;25.00;61.20;;;;;;5017511;28;100486;-83
2022/08/20 06:22:59;;;;;;;3.42;1.70;;;25.00;60.40;;;;;;5016413;28;92458;-82
2022/08/20 06:25:25;;;;;;;2.78;1.58;;;25.00;60.80;;;;;;5014650;27;94226;-82
2022/08/20 06:27:50;;;;;;;7.20;2.15;;;25.10;61.30;;;;;;5014905;28;92153;-82
2022/08/20 06:30:16;;;;;;;11.35;2.25;;;25.10;60.30;;;;;;5014701;27;93528;-83
2022/08/20 06:32:42;;;;;;;7.30;2.40;;;25.10;60.70;;;;;;5015854;27;94461;-83
2022/08/20 06:35:09;;;;;;;6.78;2.30;;;25.10;60.70;;;;;;5015728;28;94588;-83
2022/08/20 06:37:37;;;;;;;5.35;2.28;;;25.00;60.60;;;;;;5013601;28;92994;-83
2022/08/20 06:40:11;;;;;;;8.30;2.53;;;25.00;60.50;;;;;;5015970;28;91938;-83
2022/08/20 06:42:40;;;;;;;5.25;2.30;;;25.00;61.50;;;;;;5013958;28;98183;-83
2022/08/20 06:45:06;;;;;;;7.10;2.72;;;25.00;61.90;;;;;;5015293;27;93147;-83
2022/08/20 06:47:32;;;;;;;5.15;1.88;;;25.00;62.20;;;;;;5016214;27;92058;-83
2022/08/20 06:49:58;;;;;;;2.78;1.70;;;25.00;62.20;;;;;;5017687;28;91332;-83
2022/08/20 06:52:23;;;;;;;6.45;2.70;;;25.00;61.80;;;;;;5017526;28;93175;-84
2022/08/20 06:54:49;;;;;;;10.00;3.25;;;25.00;60.90;;;;;;5016083;27;93316;-83
2022/08/20 06:57:17;;;;;;;21.50;5.28;;;25.00;60.00;;;;;;5017074;27;93636;-83
2022/08/20 06:59:42;;;;;;;109.18;23.60;;;25.00;60.40;;;;;;5016950;27;92253;-83
2022/08/20 07:02:08;;;;;;;113.88;24.63;;;24.90;59.00;;;;;;5017855;28;93466;-83
2022/08/20 07:04:34;;;;;;;79.72;17.80;;;24.90;58.70;;;;;;5015509;28;95910;-83
2022/08/20 07:07:00;;;;;;;50.42;13.35;;;24.90;58.30;;;;;;5016294;27;92429;-83
2022/08/20 07:09:27;;;;;;;48.80;11.43;;;24.80;58.10;;;;;;5016018;28;92115;-83
2022/08/20 07:11:52;;;;;;;40.63;9.73;;;24.90;58.40;;;;;;5015793;27;92733;-83
2022/08/20 07:14:18;;;;;;;43.83;10.35;;;24.80;58.30;;;;;;5016580;28;92323;-83
2022/08/20 07:16:46;;;;;;;30.05;8.85;;;24.80;58.90;;;;;;5018200;28;92148;-82
2022/08/20 07:19:12;;;;;;;37.70;9.52;;;24.80;58.30;;;;;;5018672;27;91997;-83
2022/08/20 07:21:39;;;;;;;30.05;9.30;;;24.80;58.40;;;;;;5018161;28;94514;-83
2022/08/20 07:24:05;;;;;;;32.45;8.82;;;24.80;58.40;;;;;;5011478;28;95842;-81
2022/08/20 07:26:31;;;;;;;32.63;9.02;;;24.90;58.40;;;;;;5012606;28;92183;-81
2022/08/20 07:28:56;;;;;;;28.02;8.30;;;24.80;57.70;;;;;;5011638;28;92451;-82
2022/08/20 07:34:07;;;;;;;37.00;9.68;;;24.80;57.70;;;;;;5010839;28;92597;-81
2022/08/20 07:36:33;;;;;;;34.60;8.55;;;24.70;57.50;;;;;;5011397;28;92042;-81
2022/08/20 07:39:00;;;;;;;36.17;9.82;;;24.80;58.10;;;;;;5012387;28;91213;-82
2022/08/20 07:41:26;;;;;;;31.35;10.45;;;24.70;57.90;;;;;;5012583;28;93684;-81
2022/08/20 07:43:52;;;;;;;28.92;10.45;;;24.70;57.80;;;;;;5010451;28;92926;-82
2022/08/20 07:46:20;;;;;;;30.75;8.57;;;24.70;57.60;;;;;;5011114;28;93374;-82
2022/08/20 07:48:48;;;;;;;28.13;8.43;;;24.60;57.60;;;;;;5012120;27;92633;-82
2022/08/20 07:51:16;;;;;;;24.10;8.03;;;24.60;58.00;;;;;;5011735;27;93258;-82
2022/08/20 07:53:43;;;;;;;42.15;12.00;;;24.60;58.10;;;;;;5011145;27;93127;-82
2022/08/20 07:56:13;;;;;;;59.15;16.60;;;24.50;58.10;;;;;;5012538;28;92400;-82
2022/08/20 07:58:48;;;;;;;57.88;13.88;;;24.60;58.20;;;;;;5011352;28;92189;-82
2022/08/20 08:01:15;;;;;;;49.20;14.00;;;24.50;58.20;;;;;;5011730;28;93451;-82
2022/08/20 08:03:41;;;;;;;39.25;11.82;;;24.50;58.70;;;;;;5011595;27;92790;-82
2022/08/20 08:06:08;;;;;;;33.92;10.45;;;24.60;58.70;;;;;;5012526;28;92303;-82
2022/08/20 08:08:35;;;;;;;31.15;9.20;;;24.50;58.50;;;;;;5010831;28;92610;-81
2022/08/20 08:11:02;;;;;;;25.33;8.68;;;24.50;58.60;;;;;;5011147;28;94111;-82
2022/08/20 08:13:34;;;;;;;24.98;8.10;;;24.50;58.80;;;;;;5011057;28;93163;-82
2022/08/20 08:16:01;;;;;;;23.80;8.43;;;24.50;58.90;;;;;;5012108;27;92367;-82
2022/08/20 08:18:32;;;;;;;19.92;8.30;;;24.50;59.60;;;;;;5012649;28;92505;-82
2022/08/20 08:20:58;;;;;;;15.88;6.53;;;24.40;59.10;;;;;;5027238;28;95362;-80
2022/08/20 08:23:24;;;;;;;15.95;7.07;;;24.40;59.10;;;;;;5012829;27;92529;-82
2022/08/20 08:25:51;;;;;;;17.20;5.97;;;24.50;59.00;;;;;;5014123;28;91872;-81
2022/08/20 08:28:17;;;;;;;16.33;6.78;;;24.60;58.90;;;;;;5013276;27;92160;-82
2022/08/20 08:30:45;;;;;;;17.38;6.57;;;24.60;58.60;;;;;;5010745;27;93612;-80
2022/08/20 08:33:30;;;;;;;20.05;7.15;;;24.70;58.60;;;;;;5011989;27;92781;-80
2022/08/20 08:36:02;;;;;;;23.23;7.82;;;24.70;59.40;;;;;;5009744;27;93488;-82
2022/08/20 08:38:30;;;;;;;17.77;7.15;;;24.70;59.70;;;;;;5010492;27;92120;-82
2022/08/20 08:40:57;;;;;;;18.40;6.93;;;24.70;59.10;;;;;;5011749;28;93029;-83
2022/08/20 08:43:26;;;;;;;19.02;6.53;;;24.70;59.30;;;;;;5009721;27;94290;-80
2022/08/20 08:46:05;;;;;;;19.98;7.30;;;24.70;59.20;;;;;;5012202;28;91926;-82
2022/08/20 08:48:41;;;;;;;;;;;24.80;58.80;;;;;;5012528;28;92681;-82
2022/08/20 08:51:11;;;;;;;21.67;7.35;;;24.80;58.90;;;;;;5028143;27;96838;-82
2022/08/20 08:53:42;;;;;;;;;;;24.70;58.90;;;;;;5027329;27;96263;-81
2022/08/20 08:56:09;;;;;;;18.95;7.10;;;24.80;58.90;;;;;;4845146;27;319944;-82
2022/08/20 08:58:35;;;;;;;20.52;7.57;;;24.80;59.00;;;;;;5002761;28;92535;-82
2022/08/20 09:01:11;;;;;;;21.75;8.30;;;24.80;59.00;;;;;;5010043;27;93848;-82
2022/08/20 09:03:42;;;;;;;21.30;7.07;;;24.80;58.90;;;;;;5013060;27;93499;-83
2022/08/20 09:06:10;;;;;;;17.88;7.03;;;24.80;58.80;;;;;;5011181;27;92575;-81
2022/08/20 09:08:48;;;;;;;20.67;7.20;;;24.80;59.00;;;;;;5012002;27;92406;-82
2022/08/20 09:11:15;;;;;;;22.27;7.05;;;24.90;59.50;;;;;;4984804;28;105147;-83
2022/08/20 09:13:42;;;;;;;21.45;6.53;;;24.90;58.90;;;;;;5003901;28;92815;-84
2022/08/20 09:16:08;;;;;;;23.92;7.55;;;25.00;58.80;;;;;;5005155;28;92648;-84
2022/08/20 09:18:34;;;;;;;19.63;6.75;;;25.00;58.70;;;;;;5007712;28;91505;-82
2022/08/20 09:20:59;;;;;;;20.08;7.55;;;25.00;58.70;;;;;;5013175;28;93184;-84
2022/08/20 09:23:25;;;;;;;18.15;7.28;;;25.00;58.50;;;;;;5006629;28;93881;-84
2022/08/20 09:25:50;;;;;;;20.08;6.72;;;25.00;58.30;;;;;;5007523;28;93703;-84
2022/08/20 09:28:16;;;;;;;21.15;7.43;;;25.00;58.70;;;;;;5006950;27;92136;-84
2022/08/20 09:30:42;;;;;;;20.30;6.82;;;25.00;58.80;;;;;;5005248;27;93074;-83
2022/08/20 09:33:07;;;;;;;25.85;6.50;;;25.00;58.30;;;;;;5004838;28;93102;-83
2022/08/20 09:35:33;;;;;;;21.60;6.22;;;25.00;58.80;;;;;;5008282;27;92415;-86
2022/08/20 09:37:59;;;;;;;20.85;6.25;;;25.10;59.60;;;;;;5013931;28;91851;-87
2022/08/20 09:40:25;;;;;;;15.70;5.80;;;25.10;58.90;;;;;;5013865;27;93215;-84
2022/08/20 09:42:50;;;;;;;15.80;6.30;;;25.00;59.30;;;;;;5014398;27;92955;-85
2022/08/20 09:45:18;;;;;;;15.60;6.30;;;25.00;60.30;;;;;;5013135;28;92079;-83
2022/08/20 09:47:43;;;;;;;16.55;6.22;;;25.00;59.50;;;;;;5012628;27;92538;-83
2022/08/20 09:50:09;;;;;;;16.67;5.95;;;25.00;59.30;;;;;;5010245;28;94434;-83
2022/08/20 09:52:40;;;;;;;16.75;6.15;;;25.00;58.90;;;;;;5006901;28;96220;-82
2022/08/20 09:55:21;;;;;;;18.48;6.55;;;25.10;59.50;;;;;;5008046;28;92489;-83
2022/08/20 09:57:48;;;;;;;16.67;6.53;;;25.10;59.40;;;;;;5009415;27;92648;-83
2022/08/20 10:00:14;;;;;;;14.48;6.55;;;25.10;59.50;;;;;;5008224;28;95065;-83
2022/08/20 10:02:41;;;;;;;15.13;6.05;;;25.10;59.50;;;;;;5009056;28;94074;-84
2022/08/20 10:05:07;;;;;;;15.05;5.93;;;25.10;59.20;;;;;;5010279;28;92332;-84
2022/08/20 10:07:34;;;;;;;14.50;5.57;;;25.10;58.80;;;;;;5011644;27;91424;-84
2022/08/20 10:10:00;;;;;;;14.20;5.38;;;25.10;59.00;;;;;;5010564;27;94427;-84
2022/08/20 10:12:26;;;;;;;16.15;5.85;;;25.10;58.60;;;;;;5010258;27;93183;-82
2022/08/20 10:14:52;;;;;;;16.65;5.75;;;25.20;58.60;;;;;;5009877;27;92952;-83
2022/08/20 10:17:17;;;;;;;14.05;5.95;;;25.20;58.70;;;;;;5013701;27;92634;-85
2022/08/20 10:19:43;;;;;;;14.55;5.72;;;25.30;58.60;;;;;;5016694;28;93733;-85
2022/08/20 10:22:09;;;;;;;14.75;5.60;;;25.30;58.10;;;;;;5016644;27;93291;-85
2022/08/20 10:24:34;;;;;;;14.13;5.57;;;25.30;58.50;;;;;;5014816;28;92202;-87
2022/08/20 10:27:00;;;;;;;15.82;6.00;;;25.30;58.10;;;;;;5013235;27;92024;-86
2022/08/20 10:29:28;;;;;;;15.80;5.70;;;25.40;58.10;;;;;;5013026;27;93056;-87
2022/08/20 10:31:55;;;;;;;13.25;5.38;;;25.30;57.90;;;;;;5015323;28;91362;-85
2022/08/20 10:34:22;;;;;;;15.10;5.90;;;25.30;58.00;;;;;;5014292;28;92502;-86
2022/08/20 10:36:47;;;;;;;9.65;4.88;;;25.30;58.10;;;;;;5012297;28;92400;-86
2022/08/20 10:39:13;;;;;;;14.98;5.32;;;25.30;58.00;;;;;;5013427;27;94161;-86
2022/08/20 10:41:39;;;;;;;13.70;5.30;;;25.40;57.80;;;;;;5014211;27;93636;-86
2022/08/20 10:44:04;;;;;;;11.13;4.80;;;25.40;57.70;;;;;;5014508;28;92278;-86
2022/08/20 10:46:30;;;;;;;17.60;5.88;;;25.40;57.30;;;;;;5012875;27;92402;-86
2022/08/20 10:48:55;;;;;;;12.75;5.18;;;25.40;57.10;;;;;;5011399;28;96374;-85
2022/08/20 10:51:21;;;;;;;15.75;5.25;;;25.40;57.10;;;;;;5012997;28;93268;-84
2022/08/20 10:53:47;;;;;;;12.55;5.40;;;25.40;57.00;;;;;;5013366;27;91951;-86
2022/08/20 10:56:12;;;;;;;17.02;5.40;;;25.50;57.20;;;;;;5012954;28;91753;-86
2022/08/20 10:58:38;;;;;;;13.00;4.68;;;25.40;56.70;;;;;;5011631;28;96837;-86
2022/08/20 11:01:04;;;;;;;14.00;5.13;;;25.40;57.00;;;;;;5003940;28;92365;-85
2022/08/20 11:03:30;;;;;;;12.77;4.47;;;25.40;56.70;;;;;;5011706;28;93456;-84
2022/08/20 11:05:56;;;;;;;13.90;4.60;;;25.40;56.60;;;;;;5011027;28;92152;-84
2022/08/20 11:08:21;;;;;;;16.55;4.88;;;25.50;56.80;;;;;;5008989;27;96271;-84
2022/08/20 11:10:47;;;;;;;16.15;4.53;;;25.40;56.60;;;;;;5015166;28;92832;-87
2022/08/20 11:13:13;;;;;;;16.67;4.90;;;25.40;56.80;;;;;;5013174;28;91993;-84
2022/08/20 11:15:41;;;;;;;17.17;5.38;;;25.50;57.20;;;;;;5013681;28;92277;-84
2022/08/20 11:18:08;;;;;;;11.13;4.50;;;25.50;56.70;;;;;;5017316;27;93553;-85
2022/08/20 11:20:36;;;;;;;11.25;4.85;;;25.50;56.40;;;;;;5016956;27;94015;-83
2022/08/20 11:23:03;;;;;;;11.07;4.80;;;25.40;56.40;;;;;;5018436;28;92382;-83
2022/08/20 11:25:28;;;;;;;11.50;4.53;;;25.40;56.50;;;;;;5015706;27;91998;-84
2022/08/20 11:27:56;;;;;;;14.48;4.75;;;25.40;56.60;;;;;;5015855;27;93536;-84
2022/08/20 11:30:23;;;;;;;15.43;4.70;;;25.50;56.40;;;;;;5015459;28;94214;-84
2022/08/20 11:32:49;;;;;;;11.07;4.60;;;25.50;56.60;;;;;;5013450;27;92494;-85
2022/08/20 11:35:15;;;;;;;17.95;4.65;;;25.50;56.30;;;;;;5013661;27;92097;-85
2022/08/20 11:37:40;;;;;;;14.85;4.75;;;25.50;56.10;;;;;;5029657;28;96326;-85
2022/08/20 11:40:08;;;;;;;13.50;5.47;;;25.50;56.50;;;;;;5011216;28;92678;-85
2022/08/20 11:42:34;;;;;;;10.10;4.25;;;25.50;56.90;;;;;;5012845;27;92180;-86
2022/08/20 11:44:59;;;;;;;10.38;4.00;;;25.50;56.50;;;;;;5013818;27;91712;-85
2022/08/20 11:47:27;;;;;;;12.48;4.53;;;25.40;56.80;;;;;;5011776;28;96880;-84
2022/08/20 11:50:02;;;;;;;12.77;4.45;;;25.40;56.80;;;;;;5014039;28;92578;-84
2022/08/20 11:52:29;;;;;;;13.68;4.60;;;25.40;56.50;;;;;;5012778;27;93099;-85
2022/08/20 11:54:55;;;;;;;14.18;4.35;;;25.40;55.70;;;;;;5011637;28;92465;-85
2022/08/20 11:57:33;;;;;;;15.18;4.82;;;25.40;55.60;;;;;;5011912;27;93316;-85
2022/08/20 12:00:01;;;;;;;10.23;4.25;;;25.40;55.50;;;;;;5012441;27;94126;-85
2022/08/20 12:02:26;;;;;;;11.73;4.05;;;25.50;56.00;;;;;;5012293;27;91946;-86
2022/08/20 12:04:53;;;;;;;11.88;4.20;;;25.50;56.00;;;;;;5013842;28;92424;-85
2022/08/20 12:07:21;;;;;;;13.27;4.20;;;25.50;56.40;;;;;;5012412;27;93291;-84
2022/08/20 12:09:47;;;;;;;17.63;4.15;;;25.50;56.10;;;;;;5012301;28;91506;-85
2022/08/20 12:12:14;;;;;;;12.77;4.43;;;25.50;56.00;;;;;;5012992;27;92833;-85
2022/08/20 12:14:40;;;;;;;9.10;3.47;;;25.60;55.30;;;;;;5011045;28;92735;-85
2022/08/20 12:17:10;;;;;;;17.70;3.67;;;25.50;55.10;;;;;;5012771;28;94864;-86
2022/08/20 12:19:37;;;;;;;20.00;4.30;;;25.60;54.40;;;;;;5012257;28;93610;-86
2022/08/20 12:22:03;;;;;;;14.93;3.70;;;25.60;54.90;;;;;;5011869;28;92663;-85
2022/08/20 12:24:28;;;;;;;15.07;3.92;;;25.70;55.00;;;;;;5011287;28;92460;-85
2022/08/20 12:26:54;;;;;;;13.57;3.78;;;25.70;54.70;;;;;;5012714;27;93622;-85
2022/08/20 12:29:19;;;;;;;16.02;3.70;;;25.70;55.10;;;;;;5011007;28;96230;-84
2022/08/20 12:31:45;;;;;;;13.40;3.45;;;25.80;55.30;;;;;;5012898;28;92660;-86
2022/08/20 12:34:11;;;;;;;12.98;3.95;;;25.80;55.30;;;;;;5012604;28;91301;-84
2022/08/20 12:36:36;;;;;;;11.48;3.85;;;25.80;55.40;;;;;;5012500;28;93230;-84
2022/08/20 12:39:02;;;;;;;18.85;3.60;;;25.80;55.10;;;;;;5012431;28;92820;-84
2022/08/20 12:41:27;;;;;;;9.55;3.88;;;25.80;55.40;;;;;;5003365;27;93582;-85
2022/08/20 12:43:53;;;;;;;12.55;3.65;;;25.80;55.60;;;;;;5013351;28;92637;-85
2022/08/20 12:46:18;;;;;;;8.23;3.33;;;25.90;55.20;;;;;;5010912;28;94925;-84
2022/08/20 12:48:44;;;;;;;13.00;3.30;;;25.90;55.20;;;;;;5011335;28;93014;-85
2022/08/20 12:51:09;;;;;;;12.07;3.60;;;25.90;55.00;;;;;;5012146;28;92721;-85
2022/08/20 12:53:35;;;;;;;18.88;3.90;;;25.90;54.70;;;;;;5012064;28;92466;-85